createdAt,value
2023-03-04T00:12:45.514Z,2.02
2023-03-04T00:32:45.570Z,2.01
2023-03-04T00:52:45.516Z,1.92
2023-03-04T01:12:45.519Z,1.87
2023-03-04T01:32:45.565Z,1.79
2023-03-04T01:52:45.523Z,1.69
2023-03-04T02:12:45.532Z,1.56
2023-03-04T02:32:45.536Z,1.54
2023-03-04T02:52:45.545Z,1.24
2023-03-04T03:12:45.548Z,1.09
2023-03-04T03:32:45.540Z,1.01
2023-03-04T03:52:45.538Z,0.86
2023-03-04T04:12:45.543Z,0.51
2023-03-04T04:32:45.549Z,0.43
2023-03-04T04:52:45.541Z,0.63
2023-03-04T05:12:45.550Z,0.73
2023-03-04T05:32:45.561Z,0.57
2023-03-04T05:52:45.562Z,0.68
2023-03-04T06:12:45.667Z,0.61
2023-03-04T06:32:45.577Z,0.64
2023-03-04T06:52:45.560Z,0.75
2023-03-04T07:12:45.580Z,0.94
2023-03-04T07:32:45.710Z,1.03
2023-03-04T08:12:45.666Z,1.43
2023-03-04T08:32:45.566Z,1.76
2023-03-04T08:52:45.587Z,2.27
2023-03-04T09:12:45.563Z,2.64
2023-03-04T09:32:45.704Z,3.20
2023-03-04T09:52:45.581Z,4.16
2023-03-04T10:12:45.612Z,4.44
2023-03-04T10:32:45.593Z,5.02
2023-03-04T10:52:45.594Z,5.62
2023-03-04T11:12:45.606Z,6.22
2023-03-04T11:32:45.605Z,6.63
2023-03-04T11:52:45.568Z,6.05
2023-03-04T12:12:45.627Z,5.79
2023-03-04T12:32:45.571Z,4.89
2023-03-04T12:52:45.609Z,4.29
2023-03-04T13:12:45.601Z,4.35
2023-03-04T13:32:45.630Z,4.12
2023-03-04T13:52:45.538Z,3.97
2023-03-04T14:12:45.640Z,3.68
2023-03-04T14:32:45.560Z,3.47
2023-03-04T14:52:45.574Z,3.27
2023-03-04T15:12:45.588Z,3.01
2023-03-04T15:32:45.677Z,2.86
2023-03-04T15:52:45.520Z,2.61
2023-03-04T16:12:45.528Z,2.16
2023-03-04T16:32:45.585Z,1.70
2023-03-04T16:52:45.556Z,1.68
2023-03-04T17:12:45.578Z,1.60
2023-03-04T17:32:45.557Z,1.39
2023-03-04T17:52:45.596Z,1.40
2023-03-04T18:12:45.595Z,1.34
2023-03-04T18:32:45.688Z,1.34
2023-03-04T18:52:45.589Z,1.24
2023-03-04T19:12:45.663Z,1.23
2023-03-04T19:32:45.624Z,1.19
2023-03-04T19:52:45.608Z,1.21
2023-03-04T20:12:45.611Z,1.31
2023-03-04T20:32:45.625Z,1.35
2023-03-04T20:52:45.696Z,1.52
2023-03-04T21:12:45.607Z,1.38
2023-03-04T21:32:45.816Z,1.32
2023-03-04T21:52:45.849Z,1.21
2023-03-04T22:12:45.793Z,1.17
2023-03-04T22:32:45.814Z,1.13
2023-03-04T22:52:45.679Z,1.17
2023-03-04T23:12:45.662Z,1.24
2023-03-04T23:32:45.685Z,1.13
2023-03-04T23:52:45.798Z,1.01
